sensor_id;sensor_type;location;lat;lon;timestamp;pressure;altitude;pressure_sealevel;temperature;humidity
52625;BME280;38519;52.540;13.410;2022-10-31T00:01:41;101154.53;;;12.91;100.00
52625;BME280;38519;52.540;13.410;2022-10-31T00:04:06;101164.09;;;12.90;100.00
52625;BME280;38519;52.540;13.410;2022-10-31T00:06:32;101153.31;;;12.86;100.00
52625;BME280;38519;52.540;13.410;2022-10-31T00:09:00;101158.69;;;12.75;100.00
52625;BME280;38519;52.540;13.410;2022-10-31T00:11:26;101156.28;;;12.79;100.00
52625;BME280;38519;52.540;13.410;2022-10-31T00:13:51;101158.31;;;12.83;100.00
52625;BME280;38519;52.540;13.410;2022-10-31T00:16:17;101162.53;;;12.81;100.00
52625;BME280;38519;52.540;13.410;2022-10-31T00:18:47;101163.34;;;12.80;100.00
52625;BME280;38519;52.540;13.410;2022-10-31T00:21:12;101165.75;;;12.77;100.00
52625;BME280;38519;52.540;13.410;2022-10-31T00:23:37;101165.41;;;12.72;100.00
52625;BME280;38519;52.540;13.410;2022-10-31T00:26:03;101170.31;;;12.67;100.00
52625;BME280;38519;52.540;13.410;2022-10-31T00:28:29;101174.28;;;12.74;100.00
52625;BME280;38519;52.540;13.410;2022-10-31T00:30:58;101172.66;;;12.88;100.00
52625;BME280;38519;52.540;13.410;2022-10-31T00:33:23;101170.25;;;12.91;100.00
52625;BME280;38519;52.540;13.410;2022-10-31T00:35:49;101176.50;;;12.93;100.00
52625;BME280;38519;52.540;13.410;2022-10-31T00:38:15;101172.66;;;12.88;100.00
52625;BME280;38519;52.540;13.410;2022-10-31T00:40:40;101173.72;;;12.78;100.00
52625;BME280;38519;52.540;13.410;2022-10-31T00:43:05;101179.91;;;12.67;100.00
52625;BME280;38519;52.540;13.410;2022-10-31T00:45:30;101178.66;;;12.62;100.00
52625;BME280;38519;52.540;13.410;2022-10-31T00:47:56;101175.50;;;12.54;100.00
52625;BME280;38519;52.540;13.410;2022-10-31T00:50:21;101184.03;;;12.51;100.00
52625;BME280;38519;52.540;13.410;2022-10-31T00:52:46;101184.94;;;12.52;100.00
52625;BME280;38519;52.540;13.410;2022-10-31T00:55:11;101178.44;;;12.59;100.00
52625;BME280;38519;52.540;13.410;2022-10-31T00:57:36;101182.53;;;12.67;100.00
52625;BME280;38519;52.540;13.410;2022-10-31T01:00:02;101183.88;;;12.73;100.00
52625;BME280;38519;52.540;13.410;2022-10-31T01:02:27;101187.38;;;12.74;100.00
52625;BME280;38519;52.540;13.410;2022-10-31T01:04:53;101191.34;;;12.81;100.00
52625;BME280;38519;52.540;13.410;2022-10-31T01:07:18;101192.84;;;12.89;100.00
52625;BME280;38519;52.540;13.410;2022-10-31T01:09:43;101193.41;;;12.85;100.00
52625;BME280;38519;52.540;13.410;2022-10-31T01:12:10;101197.31;;;12.78;100.00
52625;BME280;38519;52.540;13.410;2022-10-31T01:14:35;101193.97;;;12.81;100.00
52625;BME280;38519;52.540;13.410;2022-10-31T01:17:01;101199.00;;;12.78;100.00
52625;BME280;38519;52.540;13.410;2022-10-31T01:19:26;101202.31;;;12.75;100.00
52625;BME280;38519;52.540;13.410;2022-10-31T01:21:53;101203.66;;;12.82;100.00
52625;BME280;38519;52.540;13.410;2022-10-31T01:24:18;101202.53;;;12.78;100.00
52625;BME280;38519;52.540;13.410;2022-10-31T01:26:44;101207.56;;;12.75;100.00
52625;BME280;38519;52.540;13.410;2022-10-31T01:29:09;101201.31;;;12.73;100.00
52625;BME280;38519;52.540;13.410;2022-10-31T01:31:35;101197.75;;;12.72;100.00
52625;BME280;38519;52.540;13.410;2022-10-31T01:34:00;101203.00;;;12.72;100.00
52625;BME280;38519;52.540;13.410;2022-10-31T01:36:27;101192.53;;;12.72;100.00
52625;BME280;38519;52.540;13.410;2022-10-31T01:38:53;101202.44;;;12.65;100.00
52625;BME280;38519;52.540;13.410;2022-10-31T01:41:21;101200.97;;;12.56;100.00
52625;BME280;38519;52.540;13.410;2022-10-31T01:46:17;101204.88;;;12.50;100.00
52625;BME280;38519;52.540;13.410;2022-10-31T01:48:42;101203.41;;;12.42;100.00
52625;BME280;38519;52.540;13.410;2022-10-31T01:51:08;101198.66;;;12.36;100.00
52625;BME280;38519;52.540;13.410;2022-10-31T01:53:35;101190.56;;;12.33;100.00
52625;BME280;38519;52.540;13.410;2022-10-31T01:56:00;101198.06;;;12.28;100.00
52625;BME280;38519;52.540;13.410;2022-10-31T01:58:27;101210.22;;;12.28;100.00
52625;BME280;38519;52.540;13.410;2022-10-31T02:00:54;101204.09;;;12.27;100.00
52625;BME280;38519;52.540;13.410;2022-10-31T02:03:20;101208.06;;;12.34;100.00
52625;BME280;38519;52.540;13.410;2022-10-31T02:05:46;101213.53;;;12.37;100.00
52625;BME280;38519;52.540;13.410;2022-10-31T02:10:40;101210.59;;;12.44;100.00
52625;BME280;38519;52.540;13.410;2022-10-31T02:13:07;101215.47;;;12.39;100.00
52625;BME280;38519;52.540;13.410;2022-10-31T02:15:34;101215.94;;;12.34;100.00
52625;BME280;38519;52.540;13.410;2022-10-31T02:18:01;101216.41;;;12.28;100.00
52625;BME280;38519;52.540;13.410;2022-10-31T02:20:29;101212.53;;;12.23;100.00
52625;BME280;38519;52.540;13.410;2022-10-31T02:28:11;101204.47;;;12.20;100.00
52625;BME280;38519;52.540;13.410;2022-10-31T02:36:02;101189.88;;;12.24;100.00
52625;BME280;38519;52.540;13.410;2022-10-31T02:38:34;101205.34;;;12.20;100.00
52625;BME280;38519;52.540;13.410;2022-10-31T02:43:35;101209.91;;;12.11;100.00
52625;BME280;38519;52.540;13.410;2022-10-31T02:46:08;101207.97;;;12.09;100.00
52625;BME280;38519;52.540;13.410;2022-10-31T02:48:37;101212.16;;;12.07;100.00
52625;BME280;38519;52.540;13.410;2022-10-31T02:51:04;101206.94;;;12.07;100.00
52625;BME280;38519;52.540;13.410;2022-10-31T02:53:33;101208.78;;;12.08;100.00
52625;BME280;38519;52.540;13.410;2022-10-31T02:56:00;101220.03;;;12.07;100.00
52625;BME280;38519;52.540;13.410;2022-10-31T02:58:27;101219.13;;;12.06;100.00
52625;BME280;38519;52.540;13.410;2022-10-31T03:03:19;101221.97;;;12.09;100.00
52625;BME280;38519;52.540;13.410;2022-10-31T03:05:52;101230.88;;;12.23;100.00
52625;BME280;38519;52.540;13.410;2022-10-31T03:11:07;101221.50;;;12.38;100.00
52625;BME280;38519;52.540;13.410;2022-10-31T03:13:40;101222.19;;;12.48;100.00
52625;BME280;38519;52.540;13.410;2022-10-31T03:16:08;101223.34;;;12.39;100.00
52625;BME280;38519;52.540;13.410;2022-10-31T03:21:11;101225.84;;;12.38;100.00
52625;BME280;38519;52.540;13.410;2022-10-31T03:23:37;101238.59;;;12.33;100.00
52625;BME280;38519;52.540;13.410;2022-10-31T03:26:05;101226.75;;;12.38;100.00
52625;BME280;38519;52.540;13.410;2022-10-31T03:28:34;101246.69;;;12.36;100.00
52625;BME280;38519;52.540;13.410;2022-10-31T03:31:01;101247.03;;;12.41;100.00
52625;BME280;38519;52.540;13.410;2022-10-31T03:33:30;101252.59;;;12.46;100.00
52625;BME280;38519;52.540;13.410;2022-10-31T03:35:57;101252.84;;;12.49;100.00
52625;BME280;38519;52.540;13.410;2022-10-31T03:38:23;101258.88;;;12.48;100.00
52625;BME280;38519;52.540;13.410;2022-10-31T03:40:48;101254.63;;;12.50;100.00
52625;BME280;38519;52.540;13.410;2022-10-31T03:43:18;101262.84;;;12.54;100.00
52625;BME280;38519;52.540;13.410;2022-10-31T03:45:47;101268.97;;;12.55;100.00
52625;BME280;38519;52.540;13.410;2022-10-31T03:48:12;101266.81;;;12.61;100.00
52625;BME280;38519;52.540;13.410;2022-10-31T03:50:40;101263.28;;;12.61;100.00
52625;BME280;38519;52.540;13.410;2022-10-31T03:53:14;101261.47;;;12.60;100.00
52625;BME280;38519;52.540;13.410;2022-10-31T03:55:42;101266.16;;;12.64;100.00
52625;BME280;38519;52.540;13.410;2022-10-31T03:58:12;101272.28;;;12.64;100.00
52625;BME280;38519;52.540;13.410;2022-10-31T04:00:41;101271.72;;;12.68;100.00
52625;BME280;38519;52.540;13.410;2022-10-31T04:03:10;101272.28;;;12.64;100.00
52625;BME280;38519;52.540;13.410;2022-10-31T04:05:36;101275.72;;;12.63;100.00
52625;BME280;38519;52.540;13.410;2022-10-31T04:08:03;101266.81;;;12.61;100.00
52625;BME280;38519;52.540;13.410;2022-10-31T04:10:29;101268.19;;;12.56;100.00
52625;BME280;38519;52.540;13.410;2022-10-31T04:13:00;101264.22;;;12.49;100.00
52625;BME280;38519;52.540;13.410;2022-10-31T04:15:26;101270.34;;;12.50;100.00
52625;BME280;38519;52.540;13.410;2022-10-31T04:17:53;101278.22;;;12.50;100.00
52625;BME280;38519;52.540;13.410;2022-10-31T04:20:28;101277.31;;;12.49;100.00
52625;BME280;38519;52.540;13.410;2022-10-31T04:22:54;101271.72;;;12.45;100.00
52625;BME280;38519;52.540;13.410;2022-10-31T04:25:19;101279.91;;;12.37;100.00
52625;BME280;38519;52.540;13.410;2022-10-31T04:27:45;101283.56;;;12.39;100.00
52625;BME280;38519;52.540;13.410;2022-10-31T04:30:11;101283.81;;;12.43;100.00
52625;BME280;38519;52.540;13.410;2022-10-31T04:32:36;101286.53;;;12.44;100.00
52625;BME280;38519;52.540;13.410;2022-10-31T04:35:01;101291.44;;;12.39;100.00
52625;BME280;38519;52.540;13.410;2022-10-31T04:37:26;101283.56;;;12.39;100.00
52625;BME280;38519;52.540;13.410;2022-10-31T04:39:52;101289.84;;;12.42;100.00
52625;BME280;38519;52.540;13.410;2022-10-31T04:42:17;101289.59;;;12.38;100.00
52625;BME280;38519;52.540;13.410;2022-10-31T04:44:43;101293.81;;;12.36;100.00
52625;BME280;38519;52.540;13.410;2022-10-31T04:47:08;101298.47;;;12.41;100.00
52625;BME280;38519;52.540;13.410;2022-10-31T04:49:33;101289.59;;;12.38;100.00
52625;BME280;38519;52.540;13.410;2022-10-31T04:51:59;101294.84;;;12.38;100.00
52625;BME280;38519;52.540;13.410;2022-10-31T04:54:24;101294.72;;;12.37;100.00
52625;BME280;38519;52.540;13.410;2022-10-31T04:56:49;101287.44;;;12.33;100.00
52625;BME280;38519;52.540;13.410;2022-10-31T04:59:14;101295.41;;;12.34;100.00
52625;BME280;38519;52.540;13.410;2022-10-31T05:01:40;101297.56;;;12.40;100.00
52625;BME280;38519;52.540;13.410;2022-10-31T05:04:05;101290.72;;;12.42;100.00
52625;BME280;38519;52.540;13.410;2022-10-31T05:06:30;101295.84;;;12.41;100.00
52625;BME280;38519;52.540;13.410;2022-10-31T05:08:55;101295.31;;;12.33;100.00
52625;BME280;38519;52.540;13.410;2022-10-31T05:11:20;101290.97;;;12.33;100.00
52625;BME280;38519;52.540;13.410;2022-10-31T05:13:47;101296.88;;;12.31;100.00
52625;BME280;38519;52.540;13.410;2022-10-31T05:16:12;101293.34;;;12.30;100.00
52625;BME280;38519;52.540;13.410;2022-10-31T05:18:37;101304.72;;;12.31;100.00
52625;BME280;38519;52.540;13.410;2022-10-31T05:21:03;101305.66;;;12.31;100.00
52625;BME280;38519;52.540;13.410;2022-10-31T05:23:29;101304.06;;;12.33;100.00
52625;BME280;38519;52.540;13.410;2022-10-31T05:25:54;101303.03;;;12.31;100.00
52625;BME280;38519;52.540;13.410;2022-10-31T05:28:19;101299.03;;;12.25;100.00
52625;BME280;38519;52.540;13.410;2022-10-31T05:30:45;101311.22;;;12.24;100.00
52625;BME280;38519;52.540;13.410;2022-10-31T05:33:11;101309.31;;;12.22;100.00
52625;BME280;38519;52.540;13.410;2022-10-31T05:35:36;101313.59;;;12.21;100.00
52625;BME280;38519;52.540;13.410;2022-10-31T05:38:01;101316.22;;;12.21;100.00
52625;BME280;38519;52.540;13.410;2022-10-31T05:40:27;101309.19;;;12.20;100.00
52625;BME280;38519;52.540;13.410;2022-10-31T05:42:52;101311.56;;;12.17;100.00
52625;BME280;38519;52.540;13.410;2022-10-31T05:45:19;101309.50;;;12.25;100.00
52625;BME280;38519;52.540;13.410;2022-10-31T05:47:54;101309.84;;;12.17;100.00
52625;BME280;38519;52.540;13.410;2022-10-31T05:50:20;101314.97;;;12.16;100.00
52625;BME280;38519;52.540;13.410;2022-10-31T05:52:46;101318.13;;;12.12;100.00
52625;BME280;38519;52.540;13.410;2022-10-31T05:55:11;101314.38;;;12.08;100.00
52625;BME280;38519;52.540;13.410;2022-10-31T05:57:37;101316.44;;;12.12;100.00
52625;BME280;38519;52.540;13.410;2022-10-31T06:00:03;101317.00;;;12.08;100.00
52625;BME280;38519;52.540;13.410;2022-10-31T06:02:30;101327.28;;;12.17;100.00
52625;BME280;38519;52.540;13.410;2022-10-31T06:04:59;101323.28;;;12.22;100.00
52625;BME280;38519;52.540;13.410;2022-10-31T06:07:24;101326.47;;;12.18;100.00
52625;BME280;38519;52.540;13.410;2022-10-31T06:09:51;101331.16;;;12.22;100.00
52625;BME280;38519;52.540;13.410;2022-10-31T06:12:16;101331.69;;;12.18;100.00
52625;BME280;38519;52.540;13.410;2022-10-31T06:14:41;101327.16;;;12.15;100.00
52625;BME280;38519;52.540;13.410;2022-10-31T06:17:06;101337.88;;;12.18;100.00
52625;BME280;38519;52.540;13.410;2022-10-31T06:19:32;101339.44;;;12.16;100.00
52625;BME280;38519;52.540;13.410;2022-10-31T06:21:57;101342.16;;;12.18;100.00
52625;BME280;38519;52.540;13.410;2022-10-31T06:24:22;101339.91;;;12.23;100.00
52625;BME280;38519;52.540;13.410;2022-10-31T06:26:47;101339.25;;;12.25;100.00
52625;BME280;38519;52.540;13.410;2022-10-31T06:29:12;101338.41;;;12.26;100.00
52625;BME280;38519;52.540;13.410;2022-10-31T06:31:38;101341.50;;;12.32;100.00
52625;BME280;38519;52.540;13.410;2022-10-31T06:34:03;101350.84;;;12.29;100.00
52625;BME280;38519;52.540;13.410;2022-10-31T06:36:28;101343.00;;;12.29;100.00
52625;BME280;38519;52.540;13.410;2022-10-31T06:38:53;101349.38;;;12.32;100.00
52625;BME280;38519;52.540;13.410;2022-10-31T06:41:19;101349.47;;;12.34;100.00
52625;BME280;38519;52.540;13.410;2022-10-31T06:43:46;101350.41;;;12.34;100.00
52625;BME280;38519;52.540;13.410;2022-10-31T06:46:11;101356.44;;;12.33;100.00
52625;BME280;38519;52.540;13.410;2022-10-31T06:48:36;101367.03;;;12.35;100.00
52625;BME280;38519;52.540;13.410;2022-10-31T06:51:01;101357.56;;;12.37;100.00
52625;BME280;38519;52.540;13.410;2022-10-31T06:53:27;101361.69;;;12.33;100.00
52625;BME280;38519;52.540;13.410;2022-10-31T06:55:54;101358.94;;;12.32;100.00
52625;BME280;38519;52.540;13.410;2022-10-31T06:58:20;101365.44;;;12.37;100.00
52625;BME280;38519;52.540;13.410;2022-10-31T07:00:45;101374.78;;;12.45;100.00
52625;BME280;38519;52.540;13.410;2022-10-31T07:03:11;101380.59;;;12.53;100.00
52625;BME280;38519;52.540;13.410;2022-10-31T07:05:37;101382.56;;;12.55;100.00
52625;BME280;38519;52.540;13.410;2022-10-31T07:08:03;101384.03;;;12.64;100.00
52625;BME280;38519;52.540;13.410;2022-10-31T07:10:29;101383.03;;;12.73;100.00
52625;BME280;38519;52.540;13.410;2022-10-31T07:12:55;101389.97;;;12.85;100.00
52625;BME280;38519;52.540;13.410;2022-10-31T07:15:21;101388.28;;;12.97;100.00
52625;BME280;38519;52.540;13.410;2022-10-31T07:17:46;101380.84;;;13.03;100.00
52625;BME280;38519;52.540;13.410;2022-10-31T07:20:11;101386.53;;;13.09;100.00
52625;BME280;38519;52.540;13.410;2022-10-31T07:22:37;101390.84;;;13.21;100.00
52625;BME280;38519;52.540;13.410;2022-10-31T07:25:04;101385.16;;;13.26;100.00
52625;BME280;38519;52.540;13.410;2022-10-31T07:27:35;101388.00;;;13.29;100.00
52625;BME280;38519;52.540;13.410;2022-10-31T07:30:00;101389.38;;;13.36;100.00
52625;BME280;38519;52.540;13.410;2022-10-31T07:32:25;101391.56;;;13.42;100.00
52625;BME280;38519;52.540;13.410;2022-10-31T07:34:50;101393.34;;;13.43;100.00
52625;BME280;38519;52.540;13.410;2022-10-31T07:37:16;101394.47;;;13.46;100.00
52625;BME280;38519;52.540;13.410;2022-10-31T07:39:41;101395.66;;;13.50;100.00
52625;BME280;38519;52.540;13.410;2022-10-31T07:42:06;101397.56;;;13.53;100.00
52625;BME280;38519;52.540;13.410;2022-10-31T07:44:33;101406.03;;;13.48;100.00
52625;BME280;38519;52.540;13.410;2022-10-31T07:46:59;101404.06;;;13.46;100.00
52625;BME280;38519;52.540;13.410;2022-10-31T07:49:24;101411.16;;;13.47;100.00
52625;BME280;38519;52.540;13.410;2022-10-31T07:51:50;101411.84;;;13.44;100.00
52625;BME280;38519;52.540;13.410;2022-10-31T07:54:15;101415.63;;;13.36;100.00
52625;BME280;38519;52.540;13.410;2022-10-31T07:56:41;101415.25;;;13.32;100.00
52625;BME280;38519;52.540;13.410;2022-10-31T07:59:07;101429.06;;;13.29;100.00
52625;BME280;38519;52.540;13.410;2022-10-31T08:01:32;101420.03;;;13.25;100.00
52625;BME280;38519;52.540;13.410;2022-10-31T08:03:58;101427.13;;;13.26;100.00
52625;BME280;38519;52.540;13.410;2022-10-31T08:06:23;101429.06;;;13.29;100.00
52625;BME280;38519;52.540;13.410;2022-10-31T08:08:48;101425.16;;;13.24;100.00
52625;BME280;38519;52.540;13.410;2022-10-31T08:11:13;101432.50;;;13.16;100.00
52625;BME280;38519;52.540;13.410;2022-10-31T08:13:38;101431.13;;;13.21;100.00
52625;BME280;38519;52.540;13.410;2022-10-31T08:16:05;101428.38;;;13.20;100.00
52625;BME280;38519;52.540;13.410;2022-10-31T08:18:32;101427.56;;;13.21;100.00
52625;BME280;38519;52.540;13.410;2022-10-31T08:20:57;101426.78;;;13.22;100.00
52625;BME280;38519;52.540;13.410;2022-10-31T08:23:22;101434.66;;;13.22;100.00
52625;BME280;38519;52.540;13.410;2022-10-31T08:25:48;101422.91;;;13.17;100.00
52625;BME280;38519;52.540;13.410;2022-10-31T08:28:13;101432.72;;;13.07;100.00
52625;BME280;38519;52.540;13.410;2022-10-31T08:30:39;101435.81;;;13.02;100.00
52625;BME280;38519;52.540;13.410;2022-10-31T08:33:16;101442.19;;;13.05;100.00
52625;BME280;38519;52.540;13.410;2022-10-31T08:35:43;101451.31;;;12.99;100.00
52625;BME280;38519;52.540;13.410;2022-10-31T08:38:20;101437.94;;;13.07;100.00
52625;BME280;38519;52.540;13.410;2022-10-31T08:40:47;101441.16;;;13.15;100.00
52625;BME280;38519;52.540;13.410;2022-10-31T08:43:14;101442.06;;;13.16;100.00
52625;BME280;38519;52.540;13.410;2022-10-31T08:45:40;101440.38;;;13.16;100.00
52625;BME280;38519;52.540;13.410;2022-10-31T08:48:06;101429.06;;;13.17;100.00
52625;BME280;38519;52.540;13.410;2022-10-31T08:50:33;101429.63;;;13.25;100.00
52625;BME280;38519;52.540;13.410;2022-10-31T08:53:06;101430.09;;;13.31;100.00
52625;BME280;38519;52.540;13.410;2022-10-31T08:55:32;101426.78;;;13.34;100.00
52625;BME280;38519;52.540;13.410;2022-10-31T08:57:57;101421.19;;;13.29;100.00
52625;BME280;38519;52.540;13.410;2022-10-31T09:00:23;101423.25;;;13.21;100.00
52625;BME280;38519;52.540;13.410;2022-10-31T09:02:54;101435.22;;;13.29;100.00
52625;BME280;38519;52.540;13.410;2022-10-31T09:05:19;101436.34;;;13.45;100.00
52625;BME280;38519;52.540;13.410;2022-10-31T09:07:44;101436.13;;;13.54;100.00
52625;BME280;38519;52.540;13.410;2022-10-31T09:10:10;101436.47;;;13.58;100.00
52625;BME280;38519;52.540;13.410;2022-10-31T09:12:35;101436.69;;;13.61;100.00
52625;BME280;38519;52.540;13.410;2022-10-31T09:15:00;101438.47;;;13.62;100.00
52625;BME280;38519;52.540;13.410;2022-10-31T09:17:26;101444.66;;;13.63;100.00
52625;BME280;38519;52.540;13.410;2022-10-31T09:19:52;101443.97;;;13.65;100.00
52625;BME280;38519;52.540;13.410;2022-10-31T09:22:17;101450.25;;;13.68;100.00
52625;BME280;38519;52.540;13.410;2022-10-31T09:24:42;101448.88;;;13.73;100.00
52625;BME280;38519;52.540;13.410;2022-10-31T09:27:07;101456.63;;;13.71;100.00
52625;BME280;38519;52.540;13.410;2022-10-31T09:29:34;101447.81;;;13.71;100.00
52625;BME280;38519;52.540;13.410;2022-10-31T09:31:59;101462.09;;;13.74;100.00
52625;BME280;38519;52.540;13.410;2022-10-31T09:34:24;101455.47;;;13.79;100.00
52625;BME280;38519;52.540;13.410;2022-10-31T09:36:49;101460.22;;;13.85;100.00
52625;BME280;38519;52.540;13.410;2022-10-31T09:39:14;101458.75;;;13.89;100.00
52625;BME280;38519;52.540;13.410;2022-10-31T09:44:19;101460.59;;;13.78;100.00
52625;BME280;38519;52.540;13.410;2022-10-31T09:51:58;101471.00;;;13.76;100.00
52625;BME280;38519;52.540;13.410;2022-10-31T09:54:27;101473.16;;;13.82;100.00
52625;BME280;38519;52.540;13.410;2022-10-31T09:56:53;101481.53;;;14.01;100.00
52625;BME280;38519;52.540;13.410;2022-10-31T09:59:25;101482.50;;;14.15;100.00
52625;BME280;38519;52.540;13.410;2022-10-31T10:01:56;101467.59;;;14.28;100.00
52625;BME280;38519;52.540;13.410;2022-10-31T10:04:31;101463.22;;;14.40;100.00
52625;BME280;38519;52.540;13.410;2022-10-31T10:06:58;101471.94;;;14.52;100.00
52625;BME280;38519;52.540;13.410;2022-10-31T10:09:25;101467.94;;;14.57;100.00
52625;BME280;38519;52.540;13.410;2022-10-31T10:22:05;101454.25;;;14.88;100.00
52625;BME280;38519;52.540;13.410;2022-10-31T10:30:03;101454.19;;;15.14;100.00
52625;BME280;38519;52.540;13.410;2022-10-31T10:32:29;101460.13;;;15.24;100.00
52625;BME280;38519;52.540;13.410;2022-10-31T10:34:58;101449.81;;;15.27;100.00
52625;BME280;38519;52.540;13.410;2022-10-31T10:37:30;101442.84;;;15.41;100.00
52625;BME280;38519;52.540;13.410;2022-10-31T10:39:59;101442.41;;;15.48;100.00
52625;BME280;38519;52.540;13.410;2022-10-31T10:42:27;101442.09;;;15.57;100.00
52625;BME280;38519;52.540;13.410;2022-10-31T10:45:16;101434.41;;;15.60;100.00
52625;BME280;38519;52.540;13.410;2022-10-31T10:48:18;101435.91;;;15.70;100.00
52625;BME280;38519;52.540;13.410;2022-10-31T10:50:50;101442.69;;;15.80;100.00
52625;BME280;38519;52.540;13.410;2022-10-31T10:53:34;101439.00;;;15.91;100.00
52625;BME280;38519;52.540;13.410;2022-10-31T10:59:01;101439.53;;;16.14;100.00
52625;BME280;38519;52.540;13.410;2022-10-31T11:01:28;101441.09;;;16.25;100.00
52625;BME280;38519;52.540;13.410;2022-10-31T11:03:53;101447.31;;;16.41;100.00
52625;BME280;38519;52.540;13.410;2022-10-31T11:06:19;101437.97;;;16.46;100.00
52625;BME280;38519;52.540;13.410;2022-10-31T11:08:50;101435.97;;;16.56;100.00
52625;BME280;38519;52.540;13.410;2022-10-31T11:13:57;101434.16;;;16.70;100.00
52625;BME280;38519;52.540;13.410;2022-10-31T11:18:51;101429.25;;;16.77;100.00
52625;BME280;38519;52.540;13.410;2022-10-31T11:23:45;101421.25;;;16.90;100.00
52625;BME280;38519;52.540;13.410;2022-10-31T11:26:18;101416.34;;;16.96;100.00
52625;BME280;38519;52.540;13.410;2022-10-31T11:28:44;101417.97;;;17.09;100.00
52625;BME280;38519;52.540;13.410;2022-10-31T11:31:20;101421.78;;;17.14;100.00
52625;BME280;38519;52.540;13.410;2022-10-31T11:33:47;101422.66;;;17.29;100.00
52625;BME280;38519;52.540;13.410;2022-10-31T11:36:14;101415.81;;;17.33;100.00
52625;BME280;38519;52.540;13.410;2022-10-31T11:38:43;101416.56;;;17.31;100.00
52625;BME280;38519;52.540;13.410;2022-10-31T11:41:25;101412.06;;;17.44;100.00
52625;BME280;38519;52.540;13.410;2022-10-31T11:43:56;101411.59;;;17.52;100.00
52625;BME280;38519;52.540;13.410;2022-10-31T11:46:36;101409.59;;;17.64;100.00
52625;BME280;38519;52.540;13.410;2022-10-31T11:49:02;101411.78;;;17.71;100.00
52625;BME280;38519;52.540;13.410;2022-10-31T11:51:32;101417.06;;;17.71;100.00
52625;BME280;38519;52.540;13.410;2022-10-31T11:53:58;101424.97;;;17.71;100.00
52625;BME280;38519;52.540;13.410;2022-10-31T11:56:24;101416.97;;;17.70;100.00
52625;BME280;38519;52.540;13.410;2022-10-31T11:58:56;101419.88;;;17.74;100.00
52625;BME280;38519;52.540;13.410;2022-10-31T12:01:26;101412.25;;;17.64;100.00
52625;BME280;38519;52.540;13.410;2022-10-31T12:06:24;101415.41;;;17.73;100.00
52625;BME280;38519;52.540;13.410;2022-10-31T12:08:54;101405.09;;;17.78;100.00
52625;BME280;38519;52.540;13.410;2022-10-31T12:16:28;101407.56;;;17.75;100.00
52625;BME280;38519;52.540;13.410;2022-10-31T12:19:00;101406.66;;;17.74;100.00
52625;BME280;38519;52.540;13.410;2022-10-31T12:23:58;101406.31;;;17.68;100.00
52625;BME280;38519;52.540;13.410;2022-10-31T12:26:31;101402.13;;;17.72;100.00
52625;BME280;38519;52.540;13.410;2022-10-31T12:31:46;101397.75;;;17.72;100.00
52625;BME280;38519;52.540;13.410;2022-10-31T12:37:08;101385.69;;;17.61;100.00
52625;BME280;38519;52.540;13.410;2022-10-31T12:42:41;101384.59;;;17.57;100.00
52625;BME280;38519;52.540;13.410;2022-10-31T12:48:17;101385.34;;;17.55;100.00
52625;BME280;38519;52.540;13.410;2022-10-31T12:50:50;101382.03;;;17.59;100.00
52625;BME280;38519;52.540;13.410;2022-10-31T12:53:21;101383.19;;;17.64;100.00
52625;BME280;38519;52.540;13.410;2022-10-31T12:58:32;101381.22;;;17.60;100.00
52625;BME280;38519;52.540;13.410;2022-10-31T13:03:38;101380.34;;;17.59;100.00
52625;BME280;38519;52.540;13.410;2022-10-31T13:06:08;101377.00;;;17.63;100.00
52625;BME280;38519;52.540;13.410;2022-10-31T13:08:45;101376.94;;;17.62;100.00
52625;BME280;38519;52.540;13.410;2022-10-31T13:14:00;101369.44;;;17.53;100.00
52625;BME280;38519;52.540;13.410;2022-10-31T13:16:29;101367.50;;;17.51;100.00
52625;BME280;38519;52.540;13.410;2022-10-31T13:21:22;101370.66;;;17.43;100.00
52625;BME280;38519;52.540;13.410;2022-10-31T13:23:49;101364.69;;;17.47;100.00
52625;BME280;38519;52.540;13.410;2022-10-31T13:26:19;101366.91;;;17.40;100.00
52625;BME280;38519;52.540;13.410;2022-10-31T13:31:12;101364.88;;;17.51;100.00
52625;BME280;38519;52.540;13.410;2022-10-31T13:33:59;101365.84;;;17.53;100.00
52625;BME280;38519;52.540;13.410;2022-10-31T13:38:57;101359.03;;;17.56;100.00
52625;BME280;38519;52.540;13.410;2022-10-31T13:46:49;101353.59;;;17.53;100.00
52625;BME280;38519;52.540;13.410;2022-10-31T13:51:47;101353.16;;;17.45;100.00
52625;BME280;38519;52.540;13.410;2022-10-31T13:54:30;101348.28;;;17.37;100.00
52625;BME280;38519;52.540;13.410;2022-10-31T13:56:56;101353.13;;;17.29;100.00
52625;BME280;38519;52.540;13.410;2022-10-31T13:59:22;101348.19;;;17.35;100.00
52625;BME280;38519;52.540;13.410;2022-10-31T14:01:58;101346.28;;;17.33;100.00
52625;BME280;38519;52.540;13.410;2022-10-31T14:04:32;101343.13;;;17.23;100.00
52625;BME280;38519;52.540;13.410;2022-10-31T14:07:08;101343.22;;;17.25;100.00
52625;BME280;38519;52.540;13.410;2022-10-31T14:12:42;101335.78;;;17.18;100.00
52625;BME280;38519;52.540;13.410;2022-10-31T14:17:39;101335.72;;;17.01;100.00
52625;BME280;38519;52.540;13.410;2022-10-31T14:22:35;101328.47;;;16.97;100.00
52625;BME280;38519;52.540;13.410;2022-10-31T14:25:02;101329.69;;;16.87;100.00